createdAt,value
2022-10-18T00:01:14.876Z,6.38
2022-10-18T00:03:44.788Z,6.10
2022-10-18T00:06:14.808Z,6.63
2022-10-18T00:08:44.786Z,6.40
2022-10-18T00:11:14.689Z,6.43
2022-10-18T00:13:44.678Z,6.40
2022-10-18T00:16:15.605Z,5.70
2022-10-18T00:18:45.868Z,7.35
2022-10-18T00:21:19.954Z,7.05
2022-10-18T00:23:50.718Z,6.63
2022-10-18T00:26:22.906Z,6.35
2022-10-18T00:28:53.925Z,6.30
2022-10-18T00:31:25.349Z,6.82
2022-10-18T00:33:56.557Z,6.78
2022-10-18T00:36:26.989Z,6.22
2022-10-18T00:38:58.117Z,6.30
2022-10-18T00:41:29.406Z,6.25
2022-10-18T00:44:09.420Z,6.95
2022-10-18T00:46:42.834Z,6.68
2022-10-18T00:49:15.575Z,6.80
2022-10-18T00:51:49.276Z,6.90
2022-10-18T00:54:19.275Z,6.40
2022-10-18T00:56:49.202Z,7.22
2022-10-18T00:59:19.398Z,7.47
2022-10-18T01:01:49.373Z,7.65
2022-10-18T01:04:19.828Z,7.32
2022-10-18T01:09:40.273Z,7.10
2022-10-18T01:12:34.860Z,6.93
2022-10-18T01:15:23.656Z,7.50
2022-10-18T01:18:08.111Z,7.15
2022-10-18T01:20:44.110Z,7.95
2022-10-18T01:23:28.567Z,7.85
2022-10-18T01:26:10.920Z,7.05
2022-10-18T01:28:43.803Z,7.40
2022-10-18T01:31:27.009Z,7.38
2022-10-18T01:36:36.747Z,7.35
2022-10-18T01:39:08.248Z,7.60
2022-10-18T01:41:38.454Z,6.40
2022-10-18T01:44:08.867Z,6.68
2022-10-18T01:46:38.828Z,6.75
2022-10-18T01:49:08.781Z,6.80
2022-10-18T01:51:38.732Z,7.25
2022-10-18T01:54:08.773Z,6.47
2022-10-18T01:56:51.609Z,6.65
2022-10-18T01:59:40.616Z,6.75
2022-10-18T02:02:29.174Z,6.47
2022-10-18T02:05:00.199Z,6.15
2022-10-18T02:07:39.243Z,6.78
2022-10-18T02:10:18.074Z,6.07
2022-10-18T02:12:48.083Z,6.28
2022-10-18T02:15:18.896Z,6.45
2022-10-18T02:17:48.935Z,6.47
2022-10-18T02:20:20.118Z,6.78
2022-10-18T02:22:51.344Z,5.82
2022-10-18T02:25:23.310Z,5.90
2022-10-18T02:27:57.159Z,6.88
2022-10-18T02:30:30.092Z,6.25
2022-10-18T02:33:20.443Z,6.22
2022-10-18T02:35:52.190Z,7.38
2022-10-18T02:38:22.503Z,5.63
2022-10-18T02:40:52.404Z,6.20
2022-10-18T02:43:22.603Z,6.35
2022-10-18T02:45:52.542Z,5.60
2022-10-18T02:48:22.445Z,5.28
2022-10-18T02:50:53.198Z,5.57
2022-10-18T02:53:23.426Z,6.15
2022-10-18T02:55:53.358Z,6.22
2022-10-18T02:58:23.286Z,5.60
2022-10-18T03:00:53.315Z,6.00
2022-10-18T03:03:23.323Z,6.55
2022-10-18T03:05:53.734Z,4.75
2022-10-18T03:08:23.929Z,6.40
2022-10-18T03:10:54.212Z,6.13
2022-10-18T03:13:24.217Z,5.57
2022-10-18T03:15:54.173Z,5.60
2022-10-18T03:18:24.158Z,5.30
2022-10-18T03:20:54.111Z,5.13
2022-10-18T03:23:24.036Z,4.88
2022-10-18T03:25:54.077Z,6.05
2022-10-18T03:28:24.047Z,4.07
2022-10-18T03:30:54.142Z,5.05
2022-10-18T03:33:24.101Z,5.05
2022-10-18T03:35:54.044Z,4.90
2022-10-18T03:38:24.028Z,5.00
2022-10-18T03:40:54.108Z,4.85
2022-10-18T03:43:24.168Z,5.35
2022-10-18T03:45:54.143Z,5.82
2022-10-18T03:48:24.038Z,5.10
2022-10-18T03:50:53.960Z,5.15
2022-10-18T03:53:23.863Z,4.65
2022-10-18T03:55:56.818Z,5.50
2022-10-18T03:58:26.937Z,7.78
2022-10-18T04:00:57.155Z,6.13
2022-10-18T04:03:27.466Z,5.95
2022-10-18T04:05:58.137Z,5.90
2022-10-18T04:08:28.221Z,4.82
2022-10-18T04:10:58.149Z,6.25
2022-10-18T04:13:28.103Z,5.30
2022-10-18T04:15:58.081Z,6.07
2022-10-18T04:18:28.067Z,5.95
2022-10-18T04:20:57.989Z,6.85
2022-10-18T04:23:27.982Z,9.95
2022-10-18T04:25:58.465Z,26.00
2022-10-18T04:28:28.547Z,25.27
2022-10-18T04:30:59.125Z,10.18
2022-10-18T04:33:29.147Z,8.18
2022-10-18T04:35:59.120Z,9.45
2022-10-18T04:38:29.176Z,8.20
2022-10-18T04:40:59.187Z,8.13
2022-10-18T04:43:29.142Z,8.77
2022-10-18T04:45:59.124Z,7.82
2022-10-18T04:48:29.062Z,6.05
2022-10-18T04:50:59.034Z,6.50
2022-10-18T04:53:28.973Z,6.22
2022-10-18T04:55:58.882Z,7.85
2022-10-18T04:58:28.963Z,6.70
2022-10-18T05:00:58.882Z,5.47
2022-10-18T05:03:28.825Z,5.60
2022-10-18T05:06:03.277Z,5.32
2022-10-18T05:08:34.037Z,5.93
2022-10-18T05:11:04.952Z,5.15
2022-10-18T05:13:35.321Z,5.10
2022-10-18T05:16:05.244Z,5.55
2022-10-18T05:18:35.679Z,4.90
2022-10-18T05:21:06.013Z,4.47
2022-10-18T05:23:36.062Z,4.70
2022-10-18T05:26:07.329Z,4.85
2022-10-18T05:28:40.004Z,5.53
2022-10-18T05:31:13.779Z,4.80
2022-10-18T05:33:46.434Z,5.32
2022-10-18T05:36:16.770Z,5.05
2022-10-18T05:38:46.807Z,4.97
2022-10-18T05:41:17.437Z,6.35
2022-10-18T05:43:48.052Z,4.30
2022-10-18T05:46:18.198Z,4.85
2022-10-18T05:48:52.131Z,4.70
2022-10-18T05:51:23.006Z,4.95
2022-10-18T05:53:54.205Z,4.70
2022-10-18T05:56:24.459Z,5.43
2022-10-18T05:58:54.474Z,5.38
2022-10-18T06:01:24.956Z,4.63
2022-10-18T06:03:55.533Z,4.35
2022-10-18T06:06:25.547Z,5.45
2022-10-18T06:08:55.540Z,4.80
2022-10-18T06:11:25.537Z,6.10
2022-10-18T06:13:55.498Z,4.97
2022-10-18T06:16:29.767Z,4.78
2022-10-18T06:19:02.723Z,5.72
2022-10-18T06:21:32.967Z,5.65
2022-10-18T06:24:03.424Z,6.05
2022-10-18T06:26:33.549Z,5.55
2022-10-18T06:29:03.677Z,5.53
2022-10-18T06:31:33.784Z,5.10
2022-10-18T06:34:04.022Z,5.13
2022-10-18T06:36:34.102Z,5.15
2022-10-18T06:39:04.007Z,4.88
2022-10-18T06:41:34.235Z,4.38
2022-10-18T06:44:21.610Z,5.43
2022-10-18T06:46:52.707Z,5.85
2022-10-18T06:49:22.624Z,5.28
2022-10-18T06:51:52.506Z,4.78
2022-10-18T06:54:22.525Z,4.75
2022-10-18T06:56:52.520Z,4.50
2022-10-18T06:59:23.581Z,4.35
2022-10-18T07:01:55.669Z,4.82
2022-10-18T07:04:25.631Z,5.03
2022-10-18T07:06:56.474Z,4.45
2022-10-18T07:09:26.696Z,5.20
2022-10-18T07:11:56.793Z,5.60
2022-10-18T07:14:29.051Z,4.97
2022-10-18T07:17:01.149Z,5.80
2022-10-18T07:22:01.796Z,5.90
2022-10-18T07:27:03.290Z,5.87
2022-10-18T07:29:33.475Z,5.97
2022-10-18T07:32:03.742Z,5.90
2022-10-18T07:34:34.058Z,6.38
2022-10-18T07:37:04.871Z,5.97
2022-10-18T07:39:35.063Z,5.88
2022-10-18T07:42:05.297Z,5.68
2022-10-18T07:44:35.507Z,6.20
2022-10-18T07:47:05.521Z,5.53
2022-10-18T07:49:35.752Z,5.70
2022-10-18T07:52:05.785Z,5.78
2022-10-18T07:54:35.706Z,6.25
2022-10-18T07:57:06.635Z,6.55
2022-10-18T07:59:36.723Z,6.03
2022-10-18T08:02:06.685Z,5.70
2022-10-18T08:04:37.597Z,6.20
2022-10-18T08:07:07.616Z,6.10
2022-10-18T08:09:37.623Z,7.30
2022-10-18T08:12:07.659Z,7.10
2022-10-18T08:14:37.595Z,5.88
2022-10-18T08:17:07.505Z,5.60
2022-10-18T08:19:37.851Z,7.75
2022-10-18T08:22:08.052Z,5.07
2022-10-18T08:24:38.009Z,6.40
2022-10-18T08:27:08.036Z,5.57
2022-10-18T08:29:37.978Z,5.72
2022-10-18T08:32:12.057Z,6.47
2022-10-18T08:34:42.678Z,5.38
2022-10-18T08:37:12.722Z,5.30
2022-10-18T08:39:42.664Z,6.65
2022-10-18T08:42:31.202Z,5.40
2022-10-18T08:45:08.285Z,5.00
2022-10-18T08:47:54.929Z,5.30
2022-10-18T08:50:36.051Z,4.85
2022-10-18T08:53:05.948Z,5.57
2022-10-18T08:55:45.820Z,5.35
2022-10-18T08:58:25.156Z,5.72
2022-10-18T09:01:12.044Z,5.38
2022-10-18T09:03:56.833Z,5.32
2022-10-18T09:06:32.989Z,6.75
2022-10-18T09:09:08.870Z,4.88
2022-10-18T09:11:48.071Z,6.03
2022-10-18T09:14:36.210Z,5.88
2022-10-18T09:17:06.233Z,5.68
2022-10-18T09:19:56.807Z,6.03
2022-10-18T09:22:30.389Z,7.97
2022-10-18T09:25:00.548Z,6.55
2022-10-18T09:27:35.329Z,6.50
2022-10-18T09:30:29.042Z,5.90
2022-10-18T09:33:00.626Z,6.88
2022-10-18T09:35:31.803Z,7.00
2022-10-18T09:38:04.231Z,7.43
2022-10-18T09:40:35.503Z,6.82
2022-10-18T09:43:08.249Z,7.05
2022-10-18T09:45:41.231Z,8.00
2022-10-18T09:48:30.412Z,8.20
2022-10-18T09:51:00.567Z,6.45
2022-10-18T09:53:31.381Z,5.80
2022-10-18T09:56:03.159Z,6.70
2022-10-18T09:58:42.760Z,6.97
2022-10-18T10:01:13.194Z,8.15
2022-10-18T10:03:43.533Z,7.55
2022-10-18T10:06:16.444Z,7.93
2022-10-18T10:08:47.133Z,7.60
2022-10-18T10:11:33.514Z,9.48
2022-10-18T10:14:10.107Z,9.68
2022-10-18T10:16:50.335Z,8.02
2022-10-18T10:19:23.153Z,7.90
2022-10-18T10:21:53.906Z,10.65
2022-10-18T10:24:30.408Z,9.57
2022-10-18T10:27:01.994Z,11.10
2022-10-18T10:29:50.309Z,13.85
2022-10-18T10:32:21.204Z,10.35
2022-10-18T10:34:51.650Z,14.15
2022-10-18T10:37:41.735Z,11.68
2022-10-18T10:40:24.122Z,12.07
2022-10-18T10:43:08.731Z,14.85
2022-10-18T10:46:06.325Z,12.85
2022-10-18T10:48:37.178Z,14.15
2022-10-18T10:51:11.398Z,11.63
2022-10-18T10:54:00.937Z,11.00
2022-10-18T10:56:34.966Z,11.30
2022-10-18T10:59:18.012Z,16.17
2022-10-18T11:01:50.903Z,12.55
2022-10-18T11:04:31.035Z,14.93
2022-10-18T11:07:07.004Z,13.07
2022-10-18T11:09:55.316Z,11.50
2022-10-18T11:12:30.633Z,13.13
2022-10-18T11:15:11.435Z,12.75
2022-10-18T11:17:49.790Z,12.43
2022-10-18T11:20:24.880Z,10.57
2022-10-18T11:23:13.383Z,12.13
2022-10-18T11:25:43.357Z,12.07
2022-10-18T11:28:18.716Z,11.00
2022-10-18T11:30:54.655Z,10.63
2022-10-18T11:34:07.495Z,10.38
2022-10-18T11:36:36.755Z,11.05
2022-10-18T11:39:28.520Z,11.13
2022-10-18T11:41:58.538Z,10.07
2022-10-18T11:44:28.509Z,11.43
2022-10-18T11:47:20.293Z,10.43
2022-10-18T11:49:56.428Z,10.97
2022-10-18T11:52:29.627Z,14.00
2022-10-18T11:55:15.121Z,12.73
2022-10-18T11:57:45.670Z,12.98
2022-10-18T12:03:05.963Z,11.23
2022-10-18T12:05:37.173Z,9.93
2022-10-18T12:08:10.271Z,14.20
2022-10-18T12:10:53.091Z,11.18
2022-10-18T12:13:43.083Z,13.40
2022-10-18T12:16:13.110Z,11.95
2022-10-18T12:18:50.207Z,13.38
2022-10-18T12:21:25.364Z,15.02
2022-10-18T12:24:05.939Z,21.38
2022-10-18T12:26:36.762Z,28.50
2022-10-18T12:29:09.590Z,14.30
2022-10-18T12:31:45.127Z,14.40
2022-10-18T12:34:17.941Z,13.98
2022-10-18T12:37:11.144Z,16.55
2022-10-18T12:40:05.397Z,14.95
2022-10-18T12:42:35.994Z,15.40
2022-10-18T12:45:07.941Z,12.73
2022-10-18T12:47:39.251Z,16.67
2022-10-18T12:50:10.784Z,13.80
2022-10-18T12:52:41.647Z,10.90
2022-10-18T12:55:16.962Z,13.93
2022-10-18T12:57:54.687Z,12.73
2022-10-18T13:00:33.841Z,13.63
2022-10-18T13:03:19.529Z,11.07
2022-10-18T13:05:55.571Z,13.57
2022-10-18T13:08:35.138Z,11.90
2022-10-18T13:11:14.171Z,14.40
2022-10-18T13:13:56.502Z,14.13
2022-10-18T13:16:29.582Z,13.52
2022-10-18T13:19:04.826Z,13.38
2022-10-18T13:21:37.981Z,11.60
2022-10-18T13:24:17.314Z,12.77
2022-10-18T13:26:51.066Z,10.77
2022-10-18T13:29:33.177Z,11.82
2022-10-18T13:32:06.166Z,10.77
2022-10-18T13:34:39.532Z,10.63
2022-10-18T13:37:12.763Z,11.13
2022-10-18T13:39:42.834Z,9.27
2022-10-18T13:42:21.355Z,10.30
2022-10-18T13:44:51.405Z,12.10
2022-10-18T13:47:50.718Z,11.40
2022-10-18T13:50:20.735Z,11.25
2022-10-18T13:52:51.285Z,9.20
2022-10-18T13:55:24.113Z,10.60
2022-10-18T13:57:54.059Z,10.60
2022-10-18T14:00:33.230Z,10.98
2022-10-18T14:03:44.044Z,11.43
2022-10-18T14:06:11.190Z,10.98
2022-10-18T14:08:46.442Z,10.52
2022-10-18T14:11:16.306Z,13.95
2022-10-18T14:14:08.920Z,10.70
2022-10-18T14:19:14.181Z,11.88
2022-10-18T14:21:45.599Z,12.52
2022-10-18T14:24:33.143Z,10.57
2022-10-18T14:27:22.401Z,11.20
2022-10-18T14:29:52.723Z,10.52
2022-10-18T14:32:26.340Z,11.02
2022-10-18T14:35:20.605Z,9.93
2022-10-18T14:37:47.961Z,8.38
2022-10-18T14:40:53.447Z,9.50
2022-10-18T14:43:23.534Z,10.07
2022-10-18T14:45:53.869Z,8.80
2022-10-18T14:48:24.128Z,8.35
2022-10-18T14:51:02.378Z,8.35
2022-10-18T14:53:38.262Z,9.48
2022-10-18T14:56:11.319Z,8.45
2022-10-18T14:58:41.339Z,9.40
2022-10-18T15:01:16.402Z,9.32
2022-10-18T15:03:46.469Z,9.07
2022-10-18T15:06:20.645Z,8.02
2022-10-18T15:08:51.519Z,7.50
2022-10-18T15:11:21.547Z,7.13
2022-10-18T15:13:56.176Z,7.63
2022-10-18T15:16:28.498Z,8.70
2022-10-18T15:21:27.979Z,7.85
2022-10-18T15:23:57.911Z,7.30
2022-10-18T15:26:30.551Z,7.97
2022-10-18T15:29:04.329Z,8.77
2022-10-18T15:31:37.769Z,7.03
2022-10-18T15:34:13.958Z,8.13
2022-10-18T15:39:27.183Z,6.82
2022-10-18T15:41:57.716Z,7.75
2022-10-18T15:44:27.728Z,7.35
2022-10-18T15:46:58.659Z,7.30
2022-10-18T15:49:34.302Z,7.07
2022-10-18T15:52:11.916Z,7.80
2022-10-18T15:54:45.893Z,5.93
2022-10-18T15:57:18.070Z,7.22
2022-10-18T15:59:54.796Z,6.72
2022-10-18T16:02:24.807Z,7.22
2022-10-18T16:04:54.700Z,7.03
2022-10-18T16:07:24.917Z,7.28
2022-10-18T16:09:54.776Z,6.57
2022-10-18T16:12:24.665Z,7.78
2022-10-18T16:14:54.531Z,5.80
2022-10-18T16:17:24.484Z,7.15
2022-10-18T16:19:54.384Z,6.72
2022-10-18T16:22:24.290Z,8.32
2022-10-18T16:24:57.225Z,6.35
2022-10-18T16:27:27.991Z,6.43
2022-10-18T16:29:58.012Z,7.25
2022-10-18T16:32:27.983Z,6.38
2022-10-18T16:34:57.909Z,6.88
2022-10-18T16:37:27.853Z,6.88
2022-10-18T16:39:57.846Z,7.03
2022-10-18T16:42:28.581Z,9.23
2022-10-18T16:44:59.816Z,8.25
2022-10-18T16:47:29.947Z,8.38
2022-10-18T16:50:06.416Z,7.35
2022-10-18T16:52:38.899Z,7.55
2022-10-18T16:55:16.042Z,8.60
2022-10-18T16:57:46.090Z,6.85
2022-10-18T17:00:20.641Z,8.35
2022-10-18T17:02:51.025Z,8.98
2022-10-18T17:05:21.276Z,8.40
2022-10-18T17:07:51.630Z,7.38
2022-10-18T17:10:22.056Z,7.85
2022-10-18T17:12:53.069Z,10.25
2022-10-18T17:15:23.073Z,8.52
2022-10-18T17:17:53.583Z,8.95
2022-10-18T17:20:27.486Z,8.68
2022-10-18T17:22:57.478Z,8.68
2022-10-18T17:25:27.490Z,8.23
2022-10-18T17:27:57.502Z,8.43
2022-10-18T17:30:27.406Z,9.52
2022-10-18T17:32:57.370Z,9.15
2022-10-18T17:35:27.356Z,7.70
2022-10-18T17:37:57.305Z,8.15
2022-10-18T17:40:27.220Z,10.23
2022-10-18T17:42:57.144Z,9.18
2022-10-18T17:45:27.078Z,8.52
2022-10-18T17:47:57.068Z,9.48
2022-10-18T17:50:27.042Z,8.73
2022-10-18T17:52:57.114Z,8.93
2022-10-18T17:55:28.005Z,12.10
2022-10-18T17:57:58.055Z,8.30
2022-10-18T18:00:29.577Z,9.05
2022-10-18T18:03:00.057Z,10.57
2022-10-18T18:05:33.865Z,10.15
2022-10-18T18:08:04.514Z,9.23
2022-10-18T18:10:35.018Z,10.15
2022-10-18T18:13:04.943Z,9.68
2022-10-18T18:15:35.257Z,9.38
2022-10-18T18:18:05.376Z,9.00
2022-10-18T18:20:35.297Z,10.35
2022-10-18T18:23:05.234Z,9.23
2022-10-18T18:25:35.110Z,10.07
2022-10-18T18:28:07.584Z,9.10
2022-10-18T18:30:37.678Z,10.85
2022-10-18T18:33:07.674Z,9.27
2022-10-18T18:35:37.642Z,9.77
2022-10-18T18:38:07.662Z,8.65
2022-10-18T18:40:37.601Z,10.43
2022-10-18T18:43:22.644Z,9.95
2022-10-18T18:45:53.670Z,10.85
2022-10-18T18:48:23.661Z,10.00
2022-10-18T18:50:53.824Z,10.95
2022-10-18T18:53:27.213Z,10.45
2022-10-18T18:56:09.391Z,9.80
2022-10-18T18:58:40.067Z,9.00
2022-10-18T19:01:14.125Z,10.73
2022-10-18T19:03:44.318Z,9.77
2022-10-18T19:06:24.341Z,10.35
2022-10-18T19:09:05.669Z,9.55
2022-10-18T19:11:40.003Z,9.85
2022-10-18T19:14:10.544Z,9.23
2022-10-18T19:16:41.077Z,9.65
2022-10-18T19:19:14.804Z,9.57
2022-10-18T19:21:46.239Z,10.82
2022-10-18T19:24:16.697Z,8.87
2022-10-18T19:26:49.917Z,9.23
2022-10-18T19:29:22.702Z,9.07
2022-10-18T19:31:53.790Z,10.32
2022-10-18T19:34:24.430Z,9.93
2022-10-18T19:36:54.396Z,9.45
2022-10-18T19:39:27.840Z,9.38
2022-10-18T19:41:59.187Z,10.32
2022-10-18T19:44:30.938Z,10.10
2022-10-18T19:47:01.423Z,8.57
2022-10-18T19:49:31.591Z,8.55
2022-10-18T19:52:01.747Z,10.35
2022-10-18T19:54:32.189Z,9.35
2022-10-18T19:57:02.573Z,9.88
2022-10-18T19:59:32.659Z,9.77
2022-10-18T20:02:02.912Z,8.82
2022-10-18T20:04:36.735Z,8.70
2022-10-18T20:07:06.818Z,10.27
2022-10-18T20:09:37.675Z,9.43
2022-10-18T20:12:08.083Z,9.80
2022-10-18T20:14:38.388Z,9.00
2022-10-18T20:17:08.413Z,10.13
2022-10-18T20:19:38.461Z,9.95
2022-10-18T20:22:08.489Z,8.95
2022-10-18T20:24:38.451Z,8.88
2022-10-18T20:27:08.891Z,9.20
2022-10-18T20:29:38.857Z,7.75
2022-10-18T20:32:09.910Z,8.98
2022-10-18T20:34:40.153Z,8.38
2022-10-18T20:37:10.056Z,9.27
2022-10-18T20:39:41.689Z,8.93
2022-10-18T20:42:12.000Z,9.68
2022-10-18T20:44:44.656Z,8.55
2022-10-18T20:47:14.581Z,8.25
2022-10-18T20:49:44.571Z,8.10
2022-10-18T20:52:14.616Z,8.18
2022-10-18T20:54:44.828Z,8.30
2022-10-18T20:57:15.263Z,8.45
2022-10-18T20:59:45.341Z,7.75
2022-10-18T21:02:15.374Z,8.45
2022-10-18T21:04:45.302Z,7.50
2022-10-18T21:07:15.258Z,7.45
2022-10-18T21:09:45.193Z,7.68
2022-10-18T21:12:15.135Z,8.48
2022-10-18T21:14:45.066Z,8.75
2022-10-18T21:17:14.968Z,7.10
2022-10-18T21:19:44.887Z,8.25
2022-10-18T21:22:14.811Z,7.43
2022-10-18T21:24:46.316Z,8.05
2022-10-18T21:27:16.224Z,6.57
2022-10-18T21:29:46.853Z,6.90
2022-10-18T21:32:17.270Z,7.95
2022-10-18T21:34:47.297Z,6.63
2022-10-18T21:37:17.227Z,7.95
2022-10-18T21:39:47.733Z,6.63
2022-10-18T21:42:17.641Z,6.45
2022-10-18T21:44:47.741Z,7.38
2022-10-18T21:47:18.051Z,6.45
2022-10-18T21:49:48.356Z,6.50
2022-10-18T21:52:18.292Z,5.75
2022-10-18T21:54:48.190Z,5.63
2022-10-18T21:57:18.114Z,5.82
2022-10-18T21:59:48.079Z,5.50
2022-10-18T22:02:18.030Z,5.97
2022-10-18T22:04:48.135Z,6.03
2022-10-18T22:07:18.214Z,6.63
2022-10-18T22:09:48.141Z,5.85
2022-10-18T22:12:18.047Z,6.07
2022-10-18T22:14:48.008Z,6.40
2022-10-18T22:17:17.983Z,6.07
2022-10-18T22:19:48.457Z,5.10
2022-10-18T22:22:19.104Z,5.72
2022-10-18T22:24:50.313Z,5.55
2022-10-18T22:27:20.261Z,5.50
2022-10-18T22:29:50.697Z,6.47
2022-10-18T22:32:21.583Z,5.90
2022-10-18T22:34:51.570Z,4.63
2022-10-18T22:37:21.457Z,5.60
2022-10-18T22:39:52.069Z,6.15
2022-10-18T22:42:22.016Z,6.00
2022-10-18T22:44:52.066Z,5.15
2022-10-18T22:47:22.248Z,6.15
2022-10-18T22:49:52.486Z,5.88
2022-10-18T22:52:22.392Z,5.90
2022-10-18T22:54:52.277Z,5.22
2022-10-18T22:57:22.200Z,5.32
2022-10-18T22:59:52.181Z,4.72
2022-10-18T23:02:22.496Z,5.53
2022-10-18T23:04:52.504Z,5.75
2022-10-18T23:07:22.429Z,4.82
2022-10-18T23:09:53.507Z,5.40
2022-10-18T23:12:23.513Z,4.85
2022-10-18T23:14:53.428Z,5.10
2022-10-18T23:17:23.334Z,5.07
2022-10-18T23:19:53.538Z,5.25
2022-10-18T23:22:23.498Z,4.75
2022-10-18T23:24:53.432Z,4.90
2022-10-18T23:27:23.373Z,3.90
2022-10-18T23:29:53.404Z,5.68
2022-10-18T23:32:23.286Z,5.50
2022-10-18T23:34:53.403Z,4.78
2022-10-18T23:37:23.292Z,5.30
2022-10-18T23:39:53.164Z,5.53
2022-10-18T23:42:23.085Z,5.22
2022-10-18T23:44:53.016Z,4.40
2022-10-18T23:47:22.926Z,5.45
2022-10-18T23:49:52.849Z,4.53
2022-10-18T23:52:22.701Z,5.28
2022-10-18T23:54:52.611Z,4.78
2022-10-18T23:57:22.538Z,4.53
2022-10-18T23:59:52.543Z,4.80
